Sunday, December 17, 2017, 4:32 PM EST
Back to Local

KNYC, New York City Central Park

Location: New York, NY, United States Lat: 40.783
Local Time: 4:32 PM EST (21:32 GMT) Lon: -73.967
Time Zone: US/Eastern Elev: 157 ft

Show me the last for .
Show Decoded

2017-12-17 15:51 METAR KNYC 172051Z AUTO 05004KT 10SM CLR 03/M04 A3026 RMK AO2 SLP238 T00281039
                 55007 $ =
2017-12-17 14:51 METAR KNYC 171951Z AUTO 04004KT 10SM CLR 03/M04 A3025 RMK AO2 SLP236 T00281044 $
                 =
2017-12-17 13:51 METAR KNYC 171851Z AUTO 00000KT 10SM CLR 02/M05 A3025 RMK AO2 SLP238 T00221050 $
                 =
2017-12-17 12:51 METAR KNYC 171751Z AUTO 00000KT 10SM BKN047 03/M05 A3028 RMK AO2 SLP245
                 T00281050 10028 20000 58016 $ =
2017-12-17 11:51 METAR KNYC 171651Z AUTO 00000KT 10SM OVC045 02/M05 A3030 RMK AO2 SLP252
                 T00171050 $ =
2017-12-17 10:51 METAR KNYC 171551Z AUTO 03005KT 10SM OVC045 02/M06 A3031 RMK AO2 SLP255
                 T00171056 $ =
2017-12-17 09:51 METAR KNYC 171451Z AUTO 00000KT 10SM OVC042 01/M06 A3032 RMK AO2 SLP262
                 T00111061 53014 $ =
2017-12-17 08:51 METAR KNYC 171351Z AUTO VRB03KT 10SM OVC041 01/M06 A3031 RMK AO2 SLP256
                 T00061061 $ =
2017-12-17 07:51 METAR KNYC 171251Z AUTO 35003KT 10SM FEW048 OVC060 00/M06 A3030 RMK AO2 SLP252
                 T00001061 $ =
2017-12-17 06:51 METAR KNYC 171151Z AUTO 03004KT 10SM OVC065 00/M06 A3028 RMK AO2 SLP248
                 T00001061 10011 20000 53003 $ =
2017-12-17 05:51 METAR KNYC 171051Z AUTO VRB04KT 10SM FEW050 OVC065 01/M06 A3027 RMK AO2 SLP241
                 T00061061 $ =
2017-12-17 04:51 METAR KNYC 170951Z AUTO VRB03KT 10SM OVC036 01/M07 A3028 RMK AO2 SLP248
                 T00061067 $ =
2017-12-17 03:51 METAR KNYC 170851Z AUTO 00000KT 10SM OVC036 01/M07 A3028 RMK AO2 SLP245
                 T00061067 51016 $ =
2017-12-17 02:51 METAR KNYC 170751Z AUTO 00000KT 10SM OVC046 01/M07 A3027 RMK AO2 SLP242
                 T00061067 $ =
2017-12-17 01:51 METAR KNYC 170651Z AUTO VRB03KT 10SM OVC055 01/M07 A3025 RMK AO2 SLP236
                 T00061067 $ =
2017-12-17 00:51 METAR KNYC 170551Z AUTO VRB05KT 10SM SCT030 OVC041 01/M07 A3023 RMK AO2 SLP230
                 T00061067 10033 20006 51011 $ =
2017-12-16 23:51 METAR KNYC 170451Z AUTO VRB05KT 10SM FEW031 BKN043 OVC060 01/M06 A3022 RMK AO2
                 SLP225 T00111061 400391050 $ =
2017-12-16 22:51 METAR KNYC 170351Z AUTO VRB06KT 10SM FEW033 OVC043 02/M06 A3021 RMK AO2 SLP224
                 T00171056 $ =
2017-12-16 21:51 METAR KNYC 170251Z AUTO VRB04KT 10SM OVC035 02/M05 A3020 RMK AO2 SLP218
                 T00221050 51031 $ =
2017-12-16 20:51 METAR KNYC 170151Z AUTO VRB04KT 10SM OVC034 03/M04 A3017 RMK AO2 SLP210
                 T00281044 $ =
2017-12-16 19:51 METAR KNYC 170051Z AUTO 29004KT 10SM OVC036 03/M04 A3015 RMK AO2 SLP204
                 T00281039 $ =
2017-12-16 18:51 METAR KNYC 162351Z AUTO 30007KT 10SM OVC042 03/M04 A3010 RMK AO2 SLP187
                 T00331039 10039 20017 53029 $ =
2017-12-16 17:51 METAR KNYC 162251Z AUTO VRB06G15KT 10SM OVC049 04/M04 A3007 RMK AO2 SLP176
                 T00391044 $ =
2017-12-16 16:51 METAR KNYC 162151Z AUTO 26008G15KT 210V290 10SM OVC049 03/M04 A3004 RMK AO2
                 SLP165 T00331044 $ =

Support USWX by starting your Amazon purchase here.